Latest Weather Observations for Young

IDN60801

Issued at 11:12 pm EDT Friday 15 November 2019 (issued every 10 minutes, with the page automatically refreshed every 10 minutes)

About weather observations | Map of weather stations | Latest weather observations for NSW | Other Formats
Station Details ID: 073138 Name: YOUNG AIRPORT Lat: -34.25 Lon: 148.25 Height: 379.6 m
Data from the previous 72 hours. | See also: Recent months at Young
Date/Time
EDT
Temp
°C
App
Temp
°C
Dew
Point
°C
Rel
Hum
%
Delta-T
°C
Wind Press
QNH
hPa
Press
MSL
hPa
Rain since
9am
mm
Dir  Spd
km/h
Gust
km/h
Spd
kts
Gust
kts
15/11:00pm 13.5 11.2 2.7 48 4.9 W 4 7 2 4 1014.2 1013.2 0.0
15/10:30pm 14.5 12.1 2.4 44 5.5 W 4 6 2 3 1014.1 1013.1 0.0
15/10:00pm 15.2 12.5 2.7 43 5.7 W 6 7 3 4 1013.9 1012.9 0.0
15/09:30pm 16.3 13.4 1.2 36 6.8 WSW 6 11 3 6 1013.6 1012.6 0.0
15/09:00pm 17.4 13.9 1.0 33 7.4 WSW 9 15 5 8 1013.2 1012.1 0.0
15/08:30pm 19.1 14.1 1.1 30 8.2 WSW 17 22 9 12 1012.7 1011.6 0.0
15/08:00pm 20.5 16.2 0.9 27 9.0 WNW 13 20 7 11 1012.1 1011.0 0.0
15/07:30pm 21.2 16.3 -0.7 23 9.8 W 15 28 8 15 1011.7 1010.7 0.0
15/07:00pm 22.6 17.3 -0.8 21 10.6 W 17 26 9 14 1011.1 1010.0 0.0
15/06:30pm 23.8 17.9 -0.5 20 11.2 W 20 37 11 20 1010.7 1009.6 0.0
15/06:00pm 25.0 18.3 -0.9 18 12.0 W 24 41 13 22 1010.5 1009.4 0.0
15/05:30pm 25.9 20.2 -1.0 17 12.5 W 19 32 10 17 1010.1 1009.0 0.0
15/05:00pm 25.6 18.8 -2.1 16 12.6 W 24 39 13 21 1010.1 1009.0 0.0
15/04:30pm 25.8 19.3 -2.8 15 12.8 W 22 41 12 22 1010.0 1008.9 0.0
15/04:00pm 25.8 18.4 -3.7 14 13.0 WNW 26 39 14 21 1010.2 1009.1 0.0
15/03:30pm 25.8 18.6 -1.9 16 12.6 WNW 26 43 14 23 1010.3 1009.2 0.0
15/03:17pm 26.2 18.9 0.0 18 12.4 NW 28 46 15 25 1010.3 1009.2 0.0
15/03:00pm 26.3 20.3 0.9 19 12.2 WNW 22 41 12 22 1010.6 1009.5 0.0
15/02:30pm 25.9 18.9 -0.2 18 12.3 WNW 26 43 14 23 1010.9 1009.8 0.0
15/02:00pm 25.5 18.9 2.2 22 11.4 WNW 26 50 14 27 1011.1 1010.0 0.0
15/01:54pm 24.7 17.7 2.2 23 11.0 WNW 28 50 15 27 1011.3 1010.3 0.0
15/01:30pm 25.1 19.7 2.5 23 11.1 WNW 20 35 11 19 1011.5 1010.5 0.0
15/01:00pm 24.2 18.7 1.8 23 10.8 WNW 20 43 11 23 1012.0 1010.9 0.0
15/12:30pm 24.2 17.7 2.4 24 10.6 WNW 26 41 14 22 1012.2 1011.1 0.0
15/12:00pm 24.0 17.7 1.6 23 10.7 WNW 24 39 13 21 1012.6 1011.5 0.0
15/11:30am 24.0 18.3 2.8 25 10.4 W 22 39 12 21 1013.0 1011.9 0.0
15/11:00am 23.0 17.8 2.5 26 9.9 WNW 19 39 10 21 1013.3 1012.2 0.0
15/10:30am 22.7 17.2 3.8 29 9.4 WNW 22 37 12 20 1013.4 1012.3 0.0
15/10:00am 22.0 17.4 3.6 30 9.0 WNW 17 26 9 14 1013.6 1012.6 0.0
15/09:30am 20.9 16.3 3.6 32 8.4 NW 17 30 9 16 1013.5 1012.4 0.0
15/09:00am 19.4 16.0 5.8 41 6.8 NNW 13 20 7 11 1013.5 1012.4 0.0
15/08:30am 17.1 14.5 6.0 48 5.5 NNE 9 13 5 7 1013.5 1012.4 0.0
15/08:00am 13.9 12.5 5.3 56 4.1 SE 2 6 1 3 1013.4 1012.3 0.0
15/07:30am 10.7 9.3 5.7 71 2.4 S 2 7 1 4 1013.4 1012.3 0.0
15/07:00am 8.3 6.3 6.4 88 0.9 SSW 6 6 3 3 1013.3 1012.2 0.0
15/06:30am 5.6 3.3 5.0 96 0.3 SSW 6 7 3 4 1013.1 1012.0 0.0
15/06:00am 4.6 2.1 4.0 96 0.3 SSW 6 7 3 4 1012.8 1011.7 0.0
15/05:30am 4.9 2.5 4.3 96 0.3 SSW 6 7 3 4 1012.7 1011.6 0.0
15/05:00am 5.4 3.4 4.5 94 0.4 S 4 7 2 4 1012.6 1011.5 0.0
15/04:30am 5.9 4.8 5.0 94 0.4 CALM 0 6 0 3 1012.7 1011.6 0.0
15/04:00am 6.3 4.1 5.4 94 0.4 SSW 6 7 3 4 1012.8 1011.7 0.0
15/03:30am 6.3 3.8 4.6 89 0.8 S 7 7 4 4 1012.9 1011.8 0.0
15/03:00am 7.0 5.9 5.0 87 0.9 CALM 0 0 0 0 1013.1 1012.0 0.0
15/02:30am 7.7 5.5 5.2 84 1.1 SSW 6 7 3 4 1013.2 1012.1 0.0
15/02:00am 8.3 6.1 5.2 81 1.4 SSW 6 7 3 4 1013.4 1012.3 0.0
15/01:30am 9.1 7.0 5.7 79 1.6 SSW 6 7 3 4 1013.6 1012.6 0.0
15/01:00am 9.6 7.2 5.4 75 1.9 SSW 7 7 4 4 1013.9 1012.9 0.0
15/12:30am 10.3 8.2 5.7 73 2.2 S 6 9 3 5 1014.1 1013.1 0.0
15/12:00am 10.7 9.3 5.5 70 2.4 SSE 2 6 1 3 1014.2 1013.2 0.0
 
Date/Time
EDT
Temp
°C
App
Temp
°C
Dew
Point
°C
Rel
Hum
%
Delta-T
°C
Wind Press
QNH
hPa
Press
MSL
hPa
Rain since
9am
mm
Dir  Spd
km/h
Gust
km/h
Spd
kts
Gust
kts
14/11:30pm 11.4 9.2 5.5 67 2.8 SSE 6 7 3 4 1014.3 1013.3 0.0
14/11:00pm 11.9 10.8 5.1 63 3.2 CALM 0 6 0 3 1014.7 1013.6 0.0
14/10:30pm 15.7 13.4 5.0 49 5.2 W 6 7 3 4 1014.7 1013.6 0.0
14/10:00pm 15.7 13.3 4.4 47 5.4 WNW 6 7 3 4 1014.7 1013.6 0.0
14/09:30pm 16.9 14.5 4.3 43 6.0 W 6 11 3 6 1014.4 1013.4 0.0
14/09:00pm 17.8 15.4 4.4 41 6.5 W 6 9 3 5 1014.1 1013.1 0.0
14/08:30pm 18.8 16.2 4.2 38 7.1 WNW 7 13 4 7 1013.8 1012.8 0.0
14/08:00pm 20.1 17.1 4.2 35 7.8 WNW 9 13 5 7 1013.5 1012.4 0.0
14/07:30pm 21.3 18.0 4.4 33 8.4 W 11 20 6 11 1013.5 1012.4 0.0
14/07:00pm 22.2 18.5 4.3 31 8.9 W 13 26 7 14 1013.4 1012.3 0.0
14/06:30pm 23.3 19.2 4.3 29 9.5 W 15 26 8 14 1013.2 1012.1 0.0
14/06:00pm 23.6 19.2 4.5 29 9.6 W 17 26 9 14 1013.2 1012.1 0.0
14/05:30pm 24.1 19.0 4.0 27 10.1 WSW 20 37 11 20 1013.2 1012.1 0.0
14/05:00pm 23.7 19.1 3.6 27 10.0 WNW 17 33 9 18 1013.3 1012.2 0.0
14/04:30pm 24.3 19.8 4.1 27 10.2 W 17 28 9 15 1013.5 1012.4 0.0
14/04:00pm 24.8 20.6 5.6 29 10.0 W 17 32 9 17 1013.8 1012.8 0.0
14/03:30pm 23.5 19.1 4.9 30 9.5 WNW 17 26 9 14 1014.1 1013.1 0.0
14/03:00pm 23.7 19.0 5.1 30 9.5 WNW 19 30 10 16 1014.5 1013.5 0.0
14/02:30pm 23.3 18.8 4.3 29 9.5 W 17 32 9 17 1015.0 1013.9 0.0
14/02:00pm 23.3 18.6 5.2 31 9.2 WNW 19 28 10 15 1015.3 1014.2 0.0
14/01:30pm 22.2 17.8 4.7 32 8.8 WNW 17 28 9 15 1015.8 1014.7 0.0
14/01:00pm 21.6 17.9 4.7 33 8.4 W 13 26 7 14 1016.1 1015.1 0.0
14/12:30pm 20.6 16.9 4.2 34 8.1 WSW 13 26 7 14 1016.5 1015.5 0.0
14/12:00pm 19.1 15.2 3.3 35 7.5 WSW 13 20 7 11 1017.1 1016.1 0.0
14/11:30am 19.3 15.6 4.3 37 7.3 WNW 13 28 7 15 1017.2 1016.2 0.0
14/11:00am 18.6 15.3 4.4 39 6.9 SW 11 17 6 9 1017.5 1016.4 0.0
14/10:30am 17.9 14.3 5.2 43 6.3 WSW 13 20 7 11 1017.7 1016.6 0.0
14/10:00am 17.7 14.1 5.0 43 6.2 WSW 13 22 7 12 1017.7 1016.6 0.0
14/09:30am 16.3 12.5 4.0 44 5.8 SSW 13 20 7 11 1017.8 1016.7 0.0
14/09:00am 15.9 13.4 3.7 44 5.7 WSW 6 13 3 7 1017.8 1016.7 0.0
14/08:30am 15.3 13.1 3.5 45 5.5 SE 4 9 2 5 1017.8 1016.7 0.0
14/08:00am 12.3 10.3 2.5 51 4.4 NE 2 6 1 3 1017.6 1016.5 0.0
14/07:30am 9.5 7.9 2.4 61 3.1 CALM 0 0 0 0 1017.1 1016.1 0.0
14/07:00am 6.3 4.8 2.8 78 1.5 CALM 0 4 0 2 1017.0 1016.0 0.0
14/06:30am 4.1 1.7 2.3 88 0.7 SSW 4 6 2 3 1016.7 1015.7 0.0
14/06:00am 3.6 0.8 1.8 88 0.7 S 6 6 3 3 1016.5 1015.5 0.0
14/05:30am 3.1 0.2 1.2 87 0.7 SW 6 7 3 4 1016.1 1015.1 0.0
14/05:00am 3.8 1.3 1.4 84 1.0 SSW 4 6 2 3 1015.9 1014.8 0.0
14/04:30am 4.1 2.3 1.5 83 1.0 CALM 0 0 0 0 1015.9 1014.8 0.0
14/04:00am 4.6 1.7 1.6 81 1.2 SSE 6 9 3 5 1015.9 1014.8 0.0
14/03:30am 4.6 1.8 1.8 82 1.1 S 6 6 3 3 1015.9 1014.8 0.0
14/03:00am 4.7 1.9 2.1 83 1.1 SSW 6 7 3 4 1016.0 1015.0 0.0
14/02:30am 4.9 2.0 1.4 78 1.4 SSW 6 7 3 4 1016.2 1015.2 0.0
14/02:00am 5.4 3.7 1.7 77 1.5 CALM 0 0 0 0 1016.2 1015.2 0.0
14/01:30am 5.9 4.1 1.1 71 1.9 CALM 0 0 0 0 1016.5 1015.5 0.0
14/01:00am 6.6 4.8 0.9 67 2.3 CALM 0 0 0 0 1016.6 1015.6 0.0
14/12:30am 7.3 5.5 1.0 64 2.6 CALM 0 0 0 0 1016.8 1015.8 0.0
14/12:00am 7.5 5.6 0.7 62 2.8 CALM 0 0 0 0 1016.9 1015.9 0.0
 
Date/Time
EDT
Temp
°C
App
Temp
°C
Dew
Point
°C
Rel
Hum
%
Delta-T
°C
Wind Press
QNH
hPa
Press
MSL
hPa
Rain since
9am
mm
Dir  Spd
km/h
Gust
km/h
Spd
kts
Gust
kts
13/11:30pm 8.5 6.6 0.7 58 3.2 CALM 0 0 0 0 1016.9 1015.9 0.0
13/11:00pm 9.1 7.1 0.0 53 3.7 CALM 0 0 0 0 1016.9 1015.9 0.0
13/10:30pm 10.6 7.7 -0.8 45 4.6 WNW 4 6 2 3 1016.9 1015.9 0.0
13/10:00pm 12.6 9.8 -0.3 41 5.4 WNW 4 7 2 4 1016.8 1015.8 0.0
13/09:30pm 13.6 10.3 -1.2 36 6.1 W 6 7 3 4 1016.8 1015.8 0.0
13/09:00pm 14.2 10.7 -1.4 34 6.5 W 7 11 4 6 1016.5 1015.5 0.0
13/08:30pm 14.9 11.0 -1.6 32 6.9 WSW 9 15 5 8 1016.2 1015.2 0.0
13/08:00pm 15.9 10.5 -1.6 30 7.4 WSW 17 26 9 14 1016.0 1015.0 0.0
13/07:30pm 16.9 10.9 -1.7 28 7.9 WSW 20 32 11 17 1015.8 1014.7 0.0
13/07:00pm 17.8 11.7 -2.5 25 8.5 WSW 20 30 11 16 1015.4 1014.3 0.0
13/06:30pm 18.7 13.2 -2.3 24 8.9 WSW 17 28 9 15 1015.1 1014.0 0.0
13/06:00pm 19.4 12.6 -2.2 23 9.3 WSW 24 39 13 21 1014.9 1013.8 0.0
13/05:30pm 20.3 13.9 -1.5 23 9.6 WSW 22 41 12 22 1014.7 1013.6 0.0
13/05:00pm 19.8 13.3 -2.5 22 9.5 WSW 22 33 12 18 1014.7 1013.6 0.0
13/04:30pm 19.7 13.3 -1.4 24 9.2 WSW 22 32 12 17 1014.7 1013.6 0.0
13/04:00pm 19.6 13.6 -1.5 24 9.2 W 20 39 11 21 1014.7 1013.6 0.0
13/03:30pm 18.9 12.8 -2.1 24 9.0 W 20 37 11 20 1014.9 1013.8 0.0
13/03:00pm 19.1 13.2 -2.5 23 9.2 WSW 19 39 10 21 1015.2 1014.1 0.0
13/02:30pm 19.4 13.7 -1.1 25 9.0 WSW 19 32 10 17 1015.4 1014.3 0.0
13/02:00pm 18.1 12.1 -1.2 27 8.3 WSW 20 37 11 20 1015.8 1014.7 0.0
13/01:30pm 17.3 11.4 -1.9 27 8.1 SW 19 35 10 19 1016.0 1015.0 0.0
13/01:00pm 16.7 10.7 -1.9 28 7.8 WSW 20 32 11 17 1016.4 1015.4 0.0
13/12:30pm 16.8 11.0 -1.3 29 7.7 WSW 19 30 10 16 1017.0 1016.0 0.0
13/12:00pm 16.9 10.4 0.5 33 7.3 WSW 24 39 13 21 1017.6 1016.5 0.0
13/11:30am 14.7 8.0 -1.0 34 6.6 WSW 24 39 13 21 1017.9 1016.8 0.0
13/11:00am 14.4 8.2 -0.1 37 6.2 SW 22 33 12 18 1017.9 1016.8 0.0
13/10:30am 13.3 5.8 -1.1 37 6.0 SW 28 44 15 24 1017.9 1016.8 0.0
13/10:00am 12.9 7.1 0.0 41 5.4 SW 20 33 11 18 1017.6 1016.5 0.0
13/09:30am 12.1 6.0 0.2 44 5.0 SW 22 37 12 20 1017.2 1016.2 0.0
13/09:00am 11.2 4.7 0.6 48 4.5 SSW 24 32 13 17 1017.2 1016.2 0.0
13/08:30am 10.1 4.0 0.7 52 3.9 SW 22 30 12 16 1017.0 1016.0 0.0
13/08:00am 9.9 3.6 1.8 57 3.5 SW 24 39 13 21 1016.7 1015.7 0.0
13/07:30am 8.8 3.2 1.2 59 3.2 SW 20 28 11 15 1016.5 1015.5 0.0
13/07:00am 8.3 2.6 0.5 58 3.2 SSW 20 32 11 17 1016.3 1015.3 0.0
13/06:30am 7.6 1.2 0.8 62 2.8 SW 24 35 13 19 1015.9 1014.8 0.0
13/06:00am 6.5 1.9 1.6 71 2.0 SW 15 17 8 9 1015.6 1014.5 0.0
13/05:30am 6.6 2.7 1.3 69 2.2 WSW 11 15 6 8 1015.1 1014.0 0.0
13/05:00am 8.3 3.7 1.7 63 2.8 SW 15 20 8 11 1015.0 1013.9 0.0
13/04:30am 9.0 3.5 1.7 60 3.1 SW 20 26 11 14 1014.9 1013.8 0.0
13/04:00am 9.6 4.0 1.3 56 3.5 SW 20 28 11 15 1015.0 1013.9 0.0
13/03:30am 10.2 3.9 1.3 54 3.8 SW 24 33 13 18 1014.7 1013.6 0.0
13/03:00am 11.0 4.4 -0.5 45 4.7 SW 24 33 13 18 1014.4 1013.4 0.0
13/02:30am 11.6 5.2 -1.5 40 5.3 SW 22 35 12 19 1014.0 1013.0 0.0
13/02:00am 11.6 6.6 -1.5 40 5.3 WSW 15 24 8 13 1013.6 1012.6 0.0
13/01:30am 12.0 6.6 -1.5 39 5.5 WSW 17 28 9 15 1013.7 1012.7 0.0
13/01:00am 12.4 6.9 -1.9 37 5.8 SW 17 28 9 15 1013.7 1012.7 0.0
13/12:30am 12.4 7.3 -2.2 36 5.9 SW 15 20 8 11 1013.7 1012.7 0.0
13/12:00am 12.4 8.0 -2.6 35 6.0 WSW 11 19 6 10 1013.7 1012.7 0.0
 
Date/Time
EDT
Temp
°C
App
Temp
°C
Dew
Point
°C
Rel
Hum
%
Delta-T
°C
Wind Press
QNH
hPa
Press
MSL
hPa
Rain since
9am
mm
Dir  Spd
km/h
Gust
km/h
Spd
kts
Gust
kts
12/11:30pm 13.8 8.6 -2.6 32 6.6 SW 15 24 8 13 1013.5 1012.4 0.0

Other formats

Comma delimited format used in spreadsheet applications
http://www.bom.gov.au/fwo/IDN60801/IDN60801.94712.axf

JavaScript Object Notation format (JSON) in row-major order
http://www.bom.gov.au/fwo/IDN60801/IDN60801.94712.json

Data quality

Most of these data are generated automatically and are frequently updated. Quality checks on data are not normally performed. It is possible for incorrect values to appear. Refer to information at About Latest Weather Observations and please check the disclaimer before using these data.